Time;durP1;ratioP1;P1;durP2;ratioP2;P2;SDS_P1;SDS_P2;PMS_P1;PMS_P2;Temp;Humidity;BMP_temperature;BMP_pressure;BME280_temperature;BME280_humidity;BME280_pressure;Samples;Min_cycle;Max_cycle;Signal;HPM_P1;HPM_P2
2022/08/03 00:01:43;;;;;;;13.38;3.63;;;16.50;99.90;;;;;;4820117;29;20044;-51
2022/08/03 00:04:10;;;;;;;7.20;3.40;;;16.50;99.90;;;;;;4821199;29;20087;-51
2022/08/03 00:06:36;;;;;;;5.28;3.78;;;16.50;99.90;;;;;;4821351;29;20495;-52
2022/08/03 00:09:05;;;;;;;9.00;3.85;;;16.50;99.90;;;;;;4820908;29;20101;-51
2022/08/03 00:11:31;;;;;;;7.45;3.15;;;16.30;99.90;;;;;;4821370;29;20042;-51
2022/08/03 00:13:57;;;;;;;3.97;3.28;;;16.30;99.90;;;;;;4820845;29;20099;-49
2022/08/03 00:16:25;;;;;;;10.45;3.65;;;16.30;99.90;;;;;;4821096;29;20440;-50
2022/08/03 00:18:50;;;;;;;5.25;3.55;;;16.30;99.90;;;;;;4820869;29;20448;-50
2022/08/03 00:21:16;;;;;;;11.50;3.63;;;16.30;99.90;;;;;;4822041;29;20341;-51
2022/08/03 00:23:42;;;;;;;7.13;3.97;;;16.30;99.90;;;;;;4824152;29;20069;-50
2022/08/03 00:26:08;;;;;;;11.35;4.05;;;16.30;99.90;;;;;;4824274;29;20030;-50
2022/08/03 00:28:34;;;;;;;8.95;3.70;;;16.20;99.90;;;;;;4824415;29;20080;-50
2022/08/03 00:31:00;;;;;;;14.07;4.18;;;16.30;99.90;;;;;;4824017;29;20187;-51
2022/08/03 00:33:25;;;;;;;22.05;4.25;;;16.20;99.90;;;;;;4824219;29;20062;-52
2022/08/03 00:35:51;;;;;;;12.63;3.75;;;16.20;99.90;;;;;;4824085;29;20030;-50
2022/08/03 00:38:18;;;;;;;6.35;3.85;;;16.10;99.90;;;;;;4824112;29;20034;-50
2022/08/03 00:40:44;;;;;;;7.10;4.80;;;16.00;99.90;;;;;;4824117;29;20217;-51
2022/08/03 00:43:10;;;;;;;7.65;3.78;;;16.00;99.90;;;;;;4822805;29;20030;-50
2022/08/03 00:45:38;;;;;;;12.40;3.80;;;16.00;99.90;;;;;;4823933;29;20041;-51
2022/08/03 00:48:05;;;;;;;6.88;4.00;;;15.90;99.90;;;;;;4823861;29;20029;-52
2022/08/03 00:50:35;;;;;;;5.50;4.03;;;15.90;99.90;;;;;;4823955;29;20455;-51
2022/08/03 00:53:04;;;;;;;6.65;3.88;;;15.90;99.90;;;;;;4823897;29;20030;-54
2022/08/03 00:55:30;;;;;;;11.60;3.25;;;16.00;99.90;;;;;;4823901;29;20022;-50
2022/08/03 00:57:56;;;;;;;16.20;4.03;;;16.00;99.90;;;;;;4823761;29;20391;-52
2022/08/03 01:00:25;;;;;;;15.20;3.80;;;15.90;99.90;;;;;;4823307;29;20042;-52
2022/08/03 01:02:52;;;;;;;4.90;3.22;;;15.90;99.90;;;;;;4823505;29;20023;-50
2022/08/03 01:05:18;;;;;;;11.38;4.15;;;15.90;99.90;;;;;;4823703;29;20041;-50
2022/08/03 01:08:07;;;;;;;11.30;3.90;;;15.70;99.90;;;;;;4823873;29;20241;-54
2022/08/03 01:11:07;;;;;;;11.45;3.67;;;15.80;99.90;;;;;;4818698;29;20487;-52
2022/08/03 01:14:07;;;;;;;10.30;3.85;;;15.70;99.90;;;;;;4822798;29;20042;-52
2022/08/03 01:16:58;;;;;;;18.13;3.75;;;15.70;99.90;;;;;;4823054;29;20152;-52
2022/08/03 01:19:30;;;;;;;8.00;3.30;;;15.60;99.90;;;;;;4823342;29;20121;-52
2022/08/03 01:22:14;;;;;;;15.73;5.22;;;15.60;99.90;;;;;;4805255;29;20034;-51
2022/08/03 01:25:07;;;;;;;15.20;4.68;;;15.50;99.90;;;;;;4805645;29;20023;-50
2022/08/03 01:28:17;;;;;;;6.38;3.60;;;15.50;99.90;;;;;;4805440;29;20505;-52
2022/08/03 01:30:45;;;;;;;11.57;4.20;;;15.50;99.90;;;;;;4817775;29;20065;-55
2022/08/03 01:33:21;;;;;;;8.95;3.97;;;15.50;99.90;;;;;;4822379;29;20505;-51
2022/08/03 01:36:03;;;;;;;5.35;3.80;;;15.50;99.90;;;;;;4823237;29;20394;-52
2022/08/03 01:38:34;;;;;;;7.88;4.00;;;15.50;99.90;;;;;;4823199;29;20120;-50
2022/08/03 01:41:23;;;;;;;25.33;3.50;;;15.50;99.90;;;;;;4823026;29;20030;-51
2022/08/03 01:43:50;;;;;;;10.63;3.65;;;15.40;99.90;;;;;;4822869;29;20151;-52
2022/08/03 01:46:19;;;;;;;7.85;4.20;;;15.40;99.90;;;;;;4823116;29;20030;-50
2022/08/03 01:48:47;;;;;;;8.55;4.32;;;15.30;99.90;;;;;;4823060;29;20030;-52
2022/08/03 01:51:15;;;;;;;16.92;3.60;;;15.20;99.90;;;;;;4823054;29;20031;-51
2022/08/03 01:53:44;;;;;;;9.00;3.85;;;15.20;99.90;;;;;;4822994;29;20027;-50
2022/08/03 01:56:12;;;;;;;13.15;3.45;;;15.20;99.90;;;;;;4821468;29;20041;-50
2022/08/03 01:58:40;;;;;;;10.18;3.63;;;15.20;99.90;;;;;;4822733;29;20026;-53
2022/08/03 02:01:07;;;;;;;7.20;3.45;;;15.20;99.90;;;;;;4823022;29;20042;-54
2022/08/03 02:03:37;;;;;;;18.67;4.35;;;15.20;99.90;;;;;;4822672;29;20034;-51
2022/08/03 02:06:04;;;;;;;14.25;4.00;;;15.10;99.90;;;;;;4822405;29;20031;-51
2022/08/03 02:08:31;;;;;;;21.65;4.50;;;15.10;99.90;;;;;;4822831;29;20517;-51
2022/08/03 02:10:58;;;;;;;13.23;3.55;;;15.10;99.90;;;;;;4822589;29;20452;-51
2022/08/03 02:13:25;;;;;;;14.57;4.05;;;15.00;99.90;;;;;;4822418;29;20046;-51
2022/08/03 02:15:52;;;;;;;7.38;4.05;;;15.00;99.90;;;;;;4822637;29;20070;-51
2022/08/03 02:18:19;;;;;;;4.47;3.72;;;15.00;99.90;;;;;;4822464;29;20046;-52
2022/08/03 02:20:46;;;;;;;10.77;4.30;;;15.00;99.90;;;;;;4822665;29;20060;-53
2022/08/03 02:23:15;;;;;;;8.63;3.53;;;15.00;99.90;;;;;;4822566;29;20372;-50
2022/08/03 02:26:02;;;;;;;9.90;3.65;;;15.00;99.90;;;;;;4822624;29;20328;-50
2022/08/03 02:28:35;;;;;;;12.10;4.13;;;14.90;99.90;;;;;;4822311;29;20026;-53
2022/08/03 02:31:05;;;;;;;11.95;3.85;;;14.90;99.90;;;;;;4822493;29;20117;-51
2022/08/03 02:33:36;;;;;;;8.27;3.10;;;14.90;99.90;;;;;;4822463;29;20490;-53
2022/08/03 02:36:04;;;;;;;7.28;4.03;;;14.90;99.90;;;;;;4821103;29;20030;-52
2022/08/03 02:38:37;;;;;;;10.10;4.03;;;14.80;99.90;;;;;;4822457;29;20457;-51
2022/08/03 02:41:06;;;;;;;;;;;14.80;99.90;;;;;;4822620;29;20567;-52
2022/08/03 02:43:34;;;;;;;20.55;4.30;;;14.80;99.90;;;;;;4821901;29;19912;-53
2022/08/03 02:46:00;;;;;;;7.10;3.80;;;14.90;99.90;;;;;;4822094;29;20467;-54
2022/08/03 02:48:32;;;;;;;5.97;3.20;;;14.80;99.90;;;;;;4822089;29;20031;-51
2022/08/03 02:51:01;;;;;;;14.05;3.42;;;14.80;99.90;;;;;;4822207;29;20402;-53
2022/08/03 02:53:28;;;;;;;7.03;3.40;;;14.80;99.90;;;;;;4822089;29;20039;-51
2022/08/03 02:55:55;;;;;;;9.32;3.85;;;14.80;99.90;;;;;;4822114;29;20034;-51
2022/08/03 02:58:23;;;;;;;5.80;3.88;;;14.80;99.90;;;;;;4822189;29;20440;-51
2022/08/03 03:00:51;;;;;;;7.63;4.47;;;14.80;99.90;;;;;;4821454;29;20140;-54
2022/08/03 03:03:17;;;;;;;22.40;4.40;;;14.80;99.90;;;;;;4822068;29;20030;-54
2022/08/03 03:05:44;;;;;;;7.82;3.85;;;14.80;99.90;;;;;;4822106;29;20169;-51
2022/08/03 03:08:16;;;;;;;21.30;4.13;;;14.70;99.90;;;;;;4821550;29;20068;-53
2022/08/03 03:10:42;;;;;;;12.52;4.15;;;14.70;99.90;;;;;;4820787;29;20479;-51
2022/08/03 03:13:09;;;;;;;14.40;5.10;;;14.60;99.90;;;;;;4821539;29;20081;-51
2022/08/03 03:15:38;;;;;;;30.60;4.80;;;14.60;99.90;;;;;;4822050;29;20057;-53
2022/08/03 03:18:05;;;;;;;9.98;3.90;;;14.60;99.90;;;;;;4821479;29;20031;-51
2022/08/03 03:20:34;;;;;;;12.98;4.95;;;14.60;99.90;;;;;;4821799;29;20038;-53
2022/08/03 03:23:13;;;;;;;6.80;3.95;;;14.60;99.90;;;;;;4821710;29;20489;-51
2022/08/03 03:25:39;;;;;;;10.07;4.25;;;14.50;99.90;;;;;;4821868;29;20101;-54
2022/08/03 03:28:05;;;;;;;9.73;3.80;;;14.50;99.90;;;;;;4821476;29;20171;-53
2022/08/03 03:30:31;;;;;;;9.95;4.03;;;14.50;99.90;;;;;;4821619;29;20534;-54
2022/08/03 03:32:58;;;;;;;10.07;4.10;;;14.50;99.90;;;;;;4821380;29;20438;-50
2022/08/03 03:35:24;;;;;;;6.72;3.90;;;14.50;99.90;;;;;;4821545;29;20070;-50
2022/08/03 03:37:50;;;;;;;8.23;4.82;;;14.50;99.90;;;;;;4821373;29;20033;-51
2022/08/03 03:40:16;;;;;;;7.30;4.13;;;14.50;99.90;;;;;;4821608;29;20034;-51
2022/08/03 03:42:42;;;;;;;8.63;4.35;;;14.50;99.90;;;;;;4821773;29;20075;-53
2022/08/03 03:45:08;;;;;;;12.38;4.45;;;14.50;99.90;;;;;;4821318;29;20034;-53
2022/08/03 03:47:34;;;;;;;6.93;4.07;;;14.50;99.90;;;;;;4821238;29;20503;-52
2022/08/03 03:50:05;;;;;;;17.95;4.15;;;14.50;99.90;;;;;;4821246;29;20478;-52
2022/08/03 03:52:32;;;;;;;8.98;3.83;;;14.50;99.90;;;;;;4821550;29;20036;-52
2022/08/03 03:54:57;;;;;;;9.65;3.45;;;14.50;99.90;;;;;;4821282;29;20670;-53
2022/08/03 03:57:24;;;;;;;20.10;3.97;;;14.50;99.90;;;;;;4823898;29;20046;-52
2022/08/03 03:59:50;;;;;;;8.07;3.90;;;14.50;99.90;;;;;;4824823;29;20420;-50
2022/08/03 04:02:16;;;;;;;9.90;3.70;;;14.50;99.90;;;;;;4824599;29;20058;-51
2022/08/03 04:13:11;;;;;;;5.38;4.30;;;14.40;99.90;;;;;;4824618;29;20057;-51
2022/08/03 04:15:39;;;;;;;14.50;4.40;;;14.60;99.90;;;;;;4824354;29;20022;-50
2022/08/03 04:18:07;;;;;;;8.70;4.07;;;14.60;99.90;;;;;;4824413;29;20503;-51
2022/08/03 04:20:36;;;;;;;7.65;4.15;;;14.60;99.90;;;;;;4824471;29;20037;-49
2022/08/03 04:23:05;;;;;;;15.70;4.07;;;14.70;99.90;;;;;;4824279;29;20031;-50
2022/08/03 04:25:34;;;;;;;11.73;4.70;;;14.60;99.90;;;;;;4824540;29;20180;-50
2022/08/03 04:28:04;;;;;;;5.03;4.03;;;14.60;99.90;;;;;;4822963;29;20479;-51
2022/08/03 04:30:32;;;;;;;9.38;4.28;;;14.70;99.90;;;;;;4824208;29;20026;-51
2022/08/03 04:33:00;;;;;;;11.35;4.95;;;14.70;99.90;;;;;;4824523;29;20034;-51
2022/08/03 04:35:32;;;;;;;5.93;3.65;;;14.80;99.90;;;;;;4824232;29;20501;-52
2022/08/03 04:38:14;;;;;;;13.35;4.35;;;14.90;99.90;;;;;;4824339;29;20031;-50
2022/08/03 04:40:42;;;;;;;11.07;3.83;;;15.10;99.90;;;;;;4823070;29;20321;-52
2022/08/03 04:43:10;;;;;;;13.98;4.50;;;15.10;99.90;;;;;;4823831;29;20027;-51
2022/08/03 04:45:36;;;;;;;11.95;4.82;;;15.20;99.90;;;;;;4822549;29;20101;-53
2022/08/03 04:48:03;;;;;;;6.00;4.43;;;15.20;99.90;;;;;;4823878;29;20022;-51
2022/08/03 04:50:29;;;;;;;7.60;4.90;;;15.30;99.90;;;;;;4824010;29;20113;-51
2022/08/03 04:52:55;;;;;;;9.18;4.97;;;15.40;99.90;;;;;;4823951;29;20034;-50
2022/08/03 04:55:31;;;;;;;10.02;4.57;;;15.50;99.90;;;;;;4823995;29;20034;-50
2022/08/03 04:57:58;;;;;;;9.57;4.57;;;15.60;99.90;;;;;;4823607;29;20049;-50
2022/08/03 05:00:24;;;;;;;5.80;4.63;;;15.70;99.90;;;;;;4823579;29;20167;-50
2022/08/03 05:02:50;;;;;;;14.38;4.63;;;15.70;99.90;;;;;;4823747;29;20023;-51
2022/08/03 05:05:16;;;;;;;5.43;4.50;;;15.80;99.90;;;;;;4823796;29;20033;-51
2022/08/03 05:07:43;;;;;;;4.78;3.88;;;15.90;99.90;;;;;;4823524;29;20089;-51
2022/08/03 05:10:10;;;;;;;6.38;4.22;;;16.10;99.90;;;;;;4823684;29;20147;-50
2022/08/03 05:12:36;;;;;;;7.22;4.57;;;16.20;99.90;;;;;;4823659;29;20481;-53
2022/08/03 05:15:02;;;;;;;10.02;4.28;;;16.30;99.90;;;;;;4823622;29;20051;-53
2022/08/03 05:17:28;;;;;;;4.43;3.80;;;16.50;99.90;;;;;;4823507;29;20513;-50
2022/08/03 05:19:54;;;;;;;5.03;3.30;;;16.60;99.90;;;;;;4823466;29;20062;-49
2022/08/03 05:22:21;;;;;;;4.07;3.67;;;16.60;99.90;;;;;;4823507;29;20091;-51
2022/08/03 05:24:47;;;;;;;5.75;3.83;;;16.60;99.90;;;;;;4823424;29;20076;-52
2022/08/03 05:27:17;;;;;;;4.32;3.78;;;16.60;99.90;;;;;;4823450;29;20498;-52
2022/08/03 05:29:44;;;;;;;9.45;4.28;;;16.70;99.90;;;;;;4823214;29;20042;-51
2022/08/03 05:32:10;;;;;;;6.07;4.22;;;16.70;99.90;;;;;;4823282;29;20033;-51
2022/08/03 05:34:35;;;;;;;7.90;4.05;;;16.80;99.90;;;;;;4823312;29;20392;-52
2022/08/03 05:37:01;;;;;;;6.75;3.85;;;17.00;99.90;;;;;;4823167;29;20039;-51
2022/08/03 05:39:27;;;;;;;4.00;3.53;;;17.20;99.90;;;;;;4823315;29;20034;-52
2022/08/03 05:41:53;;;;;;;3.45;3.15;;;17.30;99.90;;;;;;4823062;29;20030;-50
2022/08/03 05:44:18;;;;;;;5.63;3.25;;;17.50;99.90;;;;;;4821743;29;20031;-51
2022/08/03 05:46:44;;;;;;;6.45;3.60;;;17.50;99.90;;;;;;4823118;29;20030;-51
2022/08/03 05:49:09;;;;;;;6.47;3.22;;;17.70;99.90;;;;;;4823043;29;20042;-52
2022/08/03 05:51:36;;;;;;;8.60;4.43;;;17.80;99.90;;;;;;4823341;29;20046;-50
2022/08/03 05:54:02;;;;;;;6.65;3.40;;;17.90;99.90;;;;;;4823024;29;20265;-50
2022/08/03 05:56:28;;;;;;;5.13;4.47;;;18.00;99.90;;;;;;4823020;29;20105;-53
2022/08/03 05:58:54;;;;;;;4.30;3.90;;;18.10;99.90;;;;;;4822467;29;20601;-50
2022/08/03 06:01:21;;;;;;;6.82;3.85;;;18.10;99.90;;;;;;4822718;29;20117;-53
2022/08/03 06:03:48;;;;;;;10.63;4.88;;;18.30;99.90;;;;;;4823001;29;20109;-51
2022/08/03 06:06:14;;;;;;;8.15;5.15;;;18.50;99.90;;;;;;4822873;29;20471;-50
2022/08/03 06:08:41;;;;;;;5.72;4.70;;;18.60;99.90;;;;;;4822900;29;20058;-50
2022/08/03 06:11:07;;;;;;;11.57;4.90;;;18.80;99.90;;;;;;4822727;29;20033;-51
2022/08/03 06:13:33;;;;;;;7.85;5.22;;;19.00;99.90;;;;;;4822551;29;20053;-51
2022/08/03 06:15:59;;;;;;;5.38;4.88;;;19.10;99.90;;;;;;4822096;29;20037;-50
2022/08/03 06:18:24;;;;;;;5.72;5.03;;;19.30;99.90;;;;;;4821848;29;20375;-51
2022/08/03 06:20:51;;;;;;;6.00;5.28;;;19.40;99.90;;;;;;4821910;29;20099;-53
2022/08/03 06:23:17;;;;;;;7.53;5.47;;;19.50;99.90;;;;;;4822535;29;20038;-50
2022/08/03 06:25:42;;;;;;;7.95;4.53;;;19.50;99.90;;;;;;4821304;29;20026;-52
2022/08/03 06:28:08;;;;;;;8.27;4.75;;;19.60;99.90;;;;;;4821041;29;20111;-52
2022/08/03 06:30:34;;;;;;;8.73;4.55;;;19.70;99.90;;;;;;4822576;29;20033;-51
2022/08/03 06:33:00;;;;;;;4.35;3.95;;;19.90;99.90;;;;;;4822436;29;20019;-53
2022/08/03 06:35:26;;;;;;;5.00;3.35;;;20.00;99.90;;;;;;4822401;29;20031;-50
2022/08/03 06:37:53;;;;;;;5.32;3.50;;;20.10;99.90;;;;;;4821020;29;20035;-51
2022/08/03 06:40:28;;;;;;;4.03;3.65;;;20.20;99.90;;;;;;4822365;29;20145;-50
2022/08/03 06:42:55;;;;;;;6.20;3.45;;;20.30;99.90;;;;;;4821902;29;20058;-52
2022/08/03 06:45:21;;;;;;;5.00;3.22;;;20.40;99.90;;;;;;4821038;29;20117;-52
2022/08/03 06:47:46;;;;;;;6.30;3.08;;;20.60;99.90;;;;;;4821493;29;20105;-55
2022/08/03 06:50:12;;;;;;;4.35;2.92;;;20.70;99.90;;;;;;4816903;29;20023;-51
2022/08/03 06:52:38;;;;;;;7.78;3.00;;;20.90;99.90;;;;;;4805757;29;20343;-52
2022/08/03 06:55:05;;;;;;;6.72;3.20;;;20.90;99.90;;;;;;4803573;29;20409;-53
2022/08/03 06:57:30;;;;;;;5.60;3.33;;;20.90;99.90;;;;;;4806216;29;20299;-50
2022/08/03 07:00:01;;;;;;;7.13;2.92;;;21.00;99.90;;;;;;4803788;29;20054;-52
2022/08/03 07:02:28;;;;;;;6.32;2.70;;;21.00;99.90;;;;;;4803909;29;20491;-53
2022/08/03 07:04:54;;;;;;;5.38;3.08;;;21.10;99.90;;;;;;4803773;29;20030;-51
2022/08/03 07:07:20;;;;;;;5.32;3.00;;;21.20;99.90;;;;;;4803770;29;20091;-53
2022/08/03 07:09:47;;;;;;;5.85;2.75;;;21.30;99.90;;;;;;4803422;29;20034;-55
2022/08/03 07:12:12;;;;;;;6.78;2.67;;;21.30;99.90;;;;;;4803497;29;20382;-50
2022/08/03 07:14:38;;;;;;;3.25;2.20;;;21.50;99.90;;;;;;4803376;29;20027;-52
2022/08/03 07:17:04;;;;;;;3.67;2.20;;;21.50;99.90;;;;;;4801769;29;20098;-54
2022/08/03 07:19:29;;;;;;;3.88;2.03;;;21.60;99.90;;;;;;4803837;29;20035;-55
2022/08/03 07:21:55;;;;;;;6.78;2.80;;;21.60;99.90;;;;;;4804076;29;20058;-55
2022/08/03 07:24:21;;;;;;;6.65;3.08;;;21.70;99.90;;;;;;4804116;29;20079;-54
2022/08/03 07:26:46;;;;;;;15.60;2.60;;;21.70;99.90;;;;;;4804093;29;20023;-52
2022/08/03 07:29:12;;;;;;;2.63;2.42;;;21.80;99.90;;;;;;4804456;29;20034;-51
2022/08/03 07:31:38;;;;;;;3.72;2.53;;;21.90;99.90;;;;;;4804752;29;20026;-51
2022/08/03 07:34:04;;;;;;;3.20;2.83;;;21.90;99.90;;;;;;4804377;29;20031;-54
2022/08/03 07:36:31;;;;;;;7.55;2.75;;;22.00;99.90;;;;;;4804558;29;20527;-51
2022/08/03 07:38:57;;;;;;;3.75;2.97;;;22.00;99.90;;;;;;4803867;29;20034;-54
2022/08/03 07:41:23;;;;;;;5.53;3.38;;;22.20;99.90;;;;;;4803323;29;20027;-54
2022/08/03 07:43:48;;;;;;;10.90;6.63;;;22.20;99.90;;;;;;4804164;29;20029;-51
2022/08/03 07:46:14;;;;;;;6.80;3.58;;;22.30;99.90;;;;;;4809288;29;20106;-50
2022/08/03 07:48:40;;;;;;;3.60;2.55;;;22.40;99.90;;;;;;4821597;29;20035;-51
2022/08/03 07:51:06;;;;;;;6.35;2.80;;;22.60;99.90;;;;;;4814177;29;20214;-54
2022/08/03 07:53:31;;;;;;;10.68;3.30;;;22.80;99.90;;;;;;4801581;29;20042;-51
2022/08/03 07:55:57;;;;;;;11.95;3.88;;;22.90;99.90;;;;;;4801366;29;20035;-51
2022/08/03 07:58:23;;;;;;;17.50;4.28;;;23.00;99.90;;;;;;4801504;29;20027;-51
2022/08/03 08:00:51;;;;;;;3.58;2.67;;;22.90;99.90;;;;;;4801632;29;20018;-55
2022/08/03 08:03:17;;;;;;;17.17;3.47;;;23.00;99.90;;;;;;4801413;29;20031;-52
2022/08/03 08:05:43;;;;;;;3.85;3.13;;;23.10;99.90;;;;;;4801455;29;20038;-51
2022/08/03 08:08:08;;;;;;;4.28;2.75;;;23.10;99.90;;;;;;4802546;29;20160;-50
2022/08/03 08:10:34;;;;;;;13.25;3.28;;;23.20;99.90;;;;;;4814490;29;20050;-52
2022/08/03 08:13:01;;;;;;;3.63;2.55;;;23.40;99.90;;;;;;4820745;29;20061;-53
2022/08/03 08:15:27;;;;;;;5.45;2.70;;;23.40;99.90;;;;;;4820049;29;20064;-53
2022/08/03 08:17:55;;;;;;;2.72;2.30;;;23.80;99.90;;;;;;4820958;29;20170;-55
2022/08/03 08:20:23;;;;;;;9.55;3.72;;;24.00;99.90;;;;;;4820993;29;20325;-52
2022/08/03 08:22:49;;;;;;;5.55;2.90;;;23.90;99.90;;;;;;4821237;29;20391;-54
2022/08/03 08:25:15;;;;;;;5.07;2.50;;;24.00;99.90;;;;;;4820837;29;20031;-56
2022/08/03 08:27:46;;;;;;;5.50;2.88;;;24.10;99.90;;;;;;4820868;29;20091;-53
2022/08/03 08:30:13;;;;;;;4.05;2.20;;;24.20;99.90;;;;;;4821008;29;20375;-55
2022/08/03 08:32:39;;;;;;;8.77;2.13;;;24.20;99.90;;;;;;4820940;29;20042;-54
2022/08/03 08:35:05;;;;;;;8.38;2.80;;;24.40;99.90;;;;;;4821015;29;20033;-53
2022/08/03 08:37:31;;;;;;;3.67;2.88;;;24.50;99.90;;;;;;4821050;29;20039;-53
2022/08/03 08:39:57;;;;;;;8.73;3.20;;;24.40;99.90;;;;;;4820866;29;20136;-55
2022/08/03 08:42:23;;;;;;;9.20;2.83;;;24.40;99.90;;;;;;4822050;29;20060;-52
2022/08/03 08:44:49;;;;;;;5.43;3.15;;;24.50;99.90;;;;;;4823968;29;20355;-51
2022/08/03 08:47:17;;;;;;;2.38;1.90;;;24.70;99.90;;;;;;4823781;29;20035;-55
2022/08/03 08:49:45;;;;;;;6.38;3.03;;;24.70;99.90;;;;;;4823822;29;20023;-54
2022/08/03 08:52:13;;;;;;;2.63;2.42;;;24.90;99.90;;;;;;4824068;29;20018;-54
2022/08/03 08:54:43;;;;;;;8.07;3.60;;;25.00;99.90;;;;;;4822664;29;20026;-53
2022/08/03 08:57:10;;;;;;;3.92;2.70;;;25.10;99.90;;;;;;4822352;29;20038;-54
2022/08/03 08:59:36;;;;;;;3.72;2.38;;;25.20;99.90;;;;;;4823897;29;20432;-51
2022/08/03 09:02:02;;;;;;;3.85;2.80;;;25.40;99.90;;;;;;4823794;29;20262;-55
2022/08/03 09:04:29;;;;;;;7.90;3.10;;;25.60;99.90;;;;;;4823602;29;20018;-51
2022/08/03 09:06:58;;;;;;;2.45;2.17;;;25.70;99.90;;;;;;4823745;29;20490;-50
2022/08/03 09:09:23;;;;;;;5.32;2.25;;;25.70;99.90;;;;;;4823657;29;20030;-54
2022/08/03 09:11:49;;;;;;;6.75;2.78;;;25.60;99.60;;;;;;4822258;29;20035;-54
2022/08/03 09:14:15;;;;;;;3.92;2.55;;;25.60;99.90;;;;;;4823645;29;20126;-51
2022/08/03 09:17:01;;;;;;;6.63;2.42;;;25.80;99.90;;;;;;4823753;29;20034;-51
2022/08/03 09:19:27;;;;;;;11.98;2.30;;;25.70;99.60;;;;;;4821976;29;20502;-51
2022/08/03 09:22:19;;;;;;;3.42;2.47;;;25.80;99.90;;;;;;4823523;29;20062;-51
2022/08/03 09:24:56;;;;;;;4.72;2.60;;;25.80;99.10;;;;;;4823364;29;20100;-52
2022/08/03 09:27:22;;;;;;;10.15;2.65;;;26.00;99.90;;;;;;4823437;29;20079;-51
2022/08/03 09:29:53;;;;;;;5.65;2.33;;;26.30;99.90;;;;;;4822416;29;20087;-52
2022/08/03 09:32:23;;;;;;;4.72;2.15;;;26.50;99.40;;;;;;4823888;29;20457;-54
2022/08/03 09:34:51;;;;;;;2.72;2.33;;;26.60;98.80;;;;;;4823823;29;20058;-54
2022/08/03 09:37:19;;;;;;;10.30;2.40;;;26.80;99.20;;;;;;4823515;29;20026;-52
2022/08/03 09:39:45;;;;;;;5.43;1.92;;;26.80;99.00;;;;;;4823270;29;20042;-54
2022/08/03 09:42:16;;;;;;;2.67;2.13;;;26.90;98.20;;;;;;4823136;29;20030;-50
2022/08/03 09:44:47;;;;;;;3.70;2.50;;;27.10;99.40;;;;;;4823370;29;20037;-53
2022/08/03 09:47:15;;;;;;;2.70;2.00;;;27.30;99.50;;;;;;4822062;29;20061;-51
2022/08/03 09:49:54;;;;;;;4.85;2.33;;;27.40;97.50;;;;;;4823165;29;20374;-52
2022/08/03 09:52:22;;;;;;;6.57;2.33;;;27.60;98.20;;;;;;4822893;29;20049;-53
2022/08/03 09:54:51;;;;;;;2.83;2.10;;;27.40;97.30;;;;;;4821870;29;20031;-54
2022/08/03 09:57:22;;;;;;;3.92;1.98;;;27.50;98.40;;;;;;4823042;29;20034;-52
2022/08/03 09:59:49;;;;;;;3.47;1.95;;;27.60;97.50;;;;;;4822836;29;20344;-51
2022/08/03 10:02:26;;;;;;;2.20;1.95;;;27.80;97.00;;;;;;4822943;29;20031;-54
2022/08/03 10:04:52;;;;;;;7.18;2.40;;;28.00;96.90;;;;;;4822698;29;20479;-51
2022/08/03 10:07:23;;;;;;;14.50;2.80;;;28.20;96.50;;;;;;4822911;29;20026;-55
2022/08/03 10:10:02;;;;;;;15.07;2.28;;;28.20;96.10;;;;;;4822420;29;20031;-51
2022/08/03 10:12:28;;;;;;;2.58;2.30;;;28.40;96.20;;;;;;4822742;29;20428;-52
2022/08/03 10:14:54;;;;;;;3.83;2.05;;;28.60;95.80;;;;;;4822789;29;20026;-52
2022/08/03 10:17:22;;;;;;;10.38;2.35;;;28.70;95.10;;;;;;4822721;29;20394;-54
2022/08/03 10:19:48;;;;;;;5.63;1.90;;;28.90;95.30;;;;;;4822468;29;20360;-51
2022/08/03 10:22:16;;;;;;;2.92;2.15;;;28.90;93.30;;;;;;4821444;29;20571;-52
2022/08/03 10:25:08;;;;;;;3.95;1.70;;;29.00;93.70;;;;;;4822636;29;20109;-54
2022/08/03 10:27:40;;;;;;;4.35;2.60;;;28.80;93.70;;;;;;4821090;29;20427;-55
2022/08/03 10:30:08;;;;;;;3.42;2.10;;;28.70;94.00;;;;;;4822128;29;20038;-51
2022/08/03 10:32:48;;;;;;;6.75;2.10;;;29.10;94.40;;;;;;4821976;29;20071;-52
2022/08/03 10:35:19;;;;;;;4.57;1.73;;;29.40;94.80;;;;;;4808641;29;20398;-51
2022/08/03 10:37:57;;;;;;;5.20;1.50;;;29.30;91.90;;;;;;4804028;29;20034;-54
2022/08/03 10:40:25;;;;;;;4.45;2.35;;;29.30;92.70;;;;;;4806084;29;20027;-55
2022/08/03 10:42:55;;;;;;;4.43;1.80;;;29.50;94.50;;;;;;4803166;29;20085;-55
2022/08/03 10:45:26;;;;;;;23.30;2.42;;;29.90;93.80;;;;;;4799440;29;20376;-54
2022/08/03 10:47:54;;;;;;;7.95;1.45;;;30.10;91.90;;;;;;4793806;29;20039;-54
2022/08/03 10:50:22;;;;;;;3.97;1.40;;;29.90;89.40;;;;;;4796917;29;20049;-54
2022/08/03 10:53:00;;;;;;;7.47;1.88;;;29.90;91.90;;;;;;4794551;29;20057;-54
2022/08/03 10:58:37;;;;;;;8.68;1.70;;;30.20;91.60;;;;;;4792930;29;20081;-55
2022/08/03 11:01:04;;;;;;;5.50;1.70;;;30.30;90.30;;;;;;4793189;29;20495;-54
2022/08/03 11:03:30;;;;;;;5.53;1.60;;;30.20;91.80;;;;;;4795472;29;20037;-51
2022/08/03 11:06:24;;;;;;;5.03;1.70;;;30.10;90.00;;;;;;4790467;29;20045;-56
2022/08/03 11:09:09;;;;;;;4.38;1.75;;;30.30;90.20;;;;;;4792175;29;20053;-53
2022/08/03 11:11:39;;;;;;;6.82;2.05;;;30.20;89.00;;;;;;4793510;29;20467;-54
2022/08/03 11:14:08;;;;;;;6.30;1.85;;;30.30;90.40;;;;;;4794331;29;20051;-53
2022/08/03 11:16:39;;;;;;;2.03;1.73;;;30.50;88.50;;;;;;4794443;29;20053;-53
2022/08/03 11:19:07;;;;;;;3.47;1.70;;;30.60;89.30;;;;;;4793889;29;20057;-54
2022/08/03 11:21:51;;;;;;;10.00;1.95;;;30.70;86.00;;;;;;4793646;29;20038;-52
2022/08/03 11:24:35;;;;;;;5.68;2.65;;;30.60;89.10;;;;;;4792487;29;20391;-56
2022/08/03 11:27:17;;;;;;;3.30;1.83;;;30.60;87.20;;;;;;4793489;29;20496;-55
2022/08/03 11:30:13;;;;;;;1.92;1.70;;;30.80;88.80;;;;;;4802478;29;20031;-52
2022/08/03 11:32:39;;;;;;;3.47;1.83;;;31.00;89.70;;;;;;4806881;29;20114;-53
2022/08/03 11:35:32;;;;;;;4.90;1.70;;;31.30;87.10;;;;;;4821175;29;20140;-53
2022/08/03 11:38:01;;;;;;;6.18;1.55;;;31.30;84.90;;;;;;4821887;29;20030;-54
2022/08/03 11:40:39;;;;;;;17.38;2.63;;;31.20;85.20;;;;;;4821905;29;20034;-55
2022/08/03 11:43:29;;;;;;;4.68;1.60;;;31.20;83.20;;;;;;4822351;29;20562;-51
2022/08/03 11:46:04;;;;;;;6.32;1.73;;;31.20;82.40;;;;;;4822025;29;20404;-53
2022/08/03 11:48:36;;;;;;;3.72;1.30;;;31.20;83.30;;;;;;4822304;29;20030;-52
2022/08/03 11:51:05;;;;;;;5.70;1.85;;;31.40;83.30;;;;;;4822079;29;20037;-51
2022/08/03 11:53:31;;;;;;;3.10;1.50;;;31.50;83.00;;;;;;4821723;29;20060;-54
2022/08/03 11:56:01;;;;;;;9.05;1.80;;;31.70;83.20;;;;;;4821951;29;20104;-52
2022/08/03 11:58:28;;;;;;;3.60;1.65;;;31.90;81.10;;;;;;4821930;29;20375;-54
2022/08/03 12:01:05;;;;;;;20.25;2.45;;;32.20;78.20;;;;;;4821897;29;20038;-54
2022/08/03 12:03:35;;;;;;;4.93;1.50;;;33.00;79.80;;;;;;4821170;29;20094;-55
2022/08/03 12:06:01;;;;;;;9.02;1.50;;;33.90;72.20;;;;;;4821147;29;20038;-55
2022/08/03 12:08:27;;;;;;;2.05;1.50;;;34.60;74.10;;;;;;4821245;29;20117;-55
2022/08/03 12:10:55;;;;;;;10.27;1.80;;;35.20;72.60;;;;;;4821163;29;20109;-56
2022/08/03 12:13:22;;;;;;;3.15;1.55;;;35.50;68.20;;;;;;4820268;29;20042;-56
2022/08/03 12:15:57;;;;;;;28.33;1.83;;;36.20;70.00;;;;;;4819732;29;20050;-54
2022/08/03 12:18:24;;;;;;;9.50;1.63;;;36.30;62.30;;;;;;4821592;29;20045;-55
2022/08/03 12:20:51;;;;;;;9.80;1.67;;;36.70;66.50;;;;;;4822732;29;20398;-56
2022/08/03 12:23:17;;;;;;;8.88;1.60;;;37.10;61.00;;;;;;4823075;29;20052;-56
2022/08/03 12:25:44;;;;;;;23.80;2.42;;;36.90;60.10;;;;;;4822680;29;20502;-56
2022/08/03 12:28:23;;;;;;;1.63;1.25;;;37.20;57.00;;;;;;4822693;29;20038;-57
2022/08/03 12:30:50;;;;;;;39.92;3.80;;;37.20;54.70;;;;;;4804755;29;20229;-54
2022/08/03 12:33:21;;;;;;;21.88;2.30;;;37.80;52.20;;;;;;4804882;29;20062;-56
2022/08/03 12:35:49;;;;;;;9.50;1.42;;;37.60;55.10;;;;;;4805771;29;20035;-56
2022/08/03 12:38:20;;;;;;;4.07;0.90;;;37.50;55.40;;;;;;4806222;29;20034;-57
2022/08/03 12:41:10;;;;;;;12.05;1.17;;;38.50;52.60;;;;;;4806190;29;20055;-55
2022/08/03 12:43:36;;;;;;;3.05;1.20;;;38.10;54.40;;;;;;4811540;29;20038;-57
2022/08/03 12:46:15;;;;;;;3.15;1.17;;;38.30;53.10;;;;;;4824255;29;20494;-58
2022/08/03 12:49:02;;;;;;;4.78;1.30;;;38.40;52.90;;;;;;4823978;29;20056;-57
2022/08/03 12:51:29;;;;;;;4.03;1.20;;;38.40;52.30;;;;;;4824054;29;20036;-57
2022/08/03 12:54:02;;;;;;;7.45;1.33;;;38.60;51.90;;;;;;4823914;29;20023;-57
2022/08/03 12:56:27;;;;;;;3.75;1.40;;;38.40;52.40;;;;;;4822725;29;20027;-56
2022/08/03 12:58:53;;;;;;;16.90;1.92;;;38.10;50.20;;;;;;4823586;29;20041;-57
2022/08/03 13:01:22;;;;;;;4.30;1.20;;;38.20;50.50;;;;;;4823957;29;20083;-56
2022/08/03 13:03:50;;;;;;;2.60;1.10;;;38.00;51.40;;;;;;4823925;29;20549;-56
2022/08/03 13:06:19;;;;;;;1.83;1.10;;;38.60;50.40;;;;;;4824077;29;20117;-57
2022/08/03 13:08:46;;;;;;;9.32;0.90;;;38.50;48.30;;;;;;4823818;29;20042;-56